Time;durP1;ratioP1;P1;durP2;ratioP2;P2;SDS_P1;SDS_P2;PMS_P1;PMS_P2;Temp;Humidity;BMP_temperature;BMP_pressure;BME280_temperature;BME280_humidity;BME280_pressure;Samples;Min_cycle;Max_cycle;Signal;HPM_P1;HPM_P2
2022/01/24 00:00:16;;;;;;;10.40;6.22;;;;;;;-1.86;62.11;102032.09;1676373;85;21538;-69
2022/01/24 00:02:44;;;;;;;11.38;6.62;;;;;;;-1.83;62.07;102034.43;1676430;85;21848;-70
2022/01/24 00:05:12;;;;;;;9.78;6.10;;;;;;;-1.80;61.96;102038.91;1676479;85;21055;-70
2022/01/24 00:07:38;;;;;;;13.38;6.90;;;;;;;-1.80;61.89;102049.38;1676495;85;21060;-70
2022/01/24 00:10:10;;;;;;;11.48;6.75;;;;;;;-1.80;61.58;102039.39;1676623;85;21064;-71
2022/01/24 00:12:50;;;;;;;12.18;7.45;;;;;;;-1.80;61.90;102045.94;1676239;85;21095;-71
2022/01/24 00:17:49;;;;;;;11.55;6.97;;;;;;;-1.89;62.15;102052.83;1676478;85;21031;-70
2022/01/24 00:28:23;;;;;;;14.13;8.13;;;;;;;-2.09;62.07;102071.63;1676648;85;21998;-70
2022/01/24 00:30:49;;;;;;;10.88;7.37;;;;;;;-2.17;62.23;102067.09;1676281;85;21024;-69
2022/01/24 00:33:18;;;;;;;12.07;7.60;;;;;;;-2.30;62.48;102077.44;1676457;85;21626;-70
2022/01/24 00:35:44;;;;;;;13.08;7.35;;;;;;;-2.33;62.60;102073.81;1676767;85;21479;-70
2022/01/24 00:38:10;;;;;;;14.13;7.30;;;;;;;-2.33;62.60;102073.81;1676745;85;20988;-70
2022/01/24 00:40:40;;;;;;;13.38;7.60;;;;;;;-2.48;62.75;102072.88;1676251;85;21057;-69
2022/01/24 00:43:33;;;;;;;12.68;7.33;;;;;;;-2.52;62.90;102077.20;1675481;84;21139;-69
2022/01/24 00:55:59;;;;;;;16.07;9.15;;;;;;;-3.07;63.19;102101.06;1651505;85;21452;-70
2022/01/24 00:58:26;;;;;;;13.30;8.20;;;;;;;-3.29;63.46;102092.91;1676627;85;21585;-69
2022/01/24 01:00:53;;;;;;;16.27;8.90;;;;;;;-3.51;64.20;102096.95;1676194;85;21106;-71
2022/01/24 01:03:19;;;;;;;12.95;8.00;;;;;;;-3.70;64.63;102106.28;1676587;85;21005;-70
2022/01/24 01:06:02;;;;;;;13.60;8.70;;;;;;;-3.84;64.99;102110.02;1676376;85;21180;-70
2022/01/24 01:19:04;;;;;;;15.05;8.25;;;;;;;-4.32;66.62;102129.94;1669189;86;21166;-70
2022/01/24 01:21:32;;;;;;;14.93;9.00;;;;;;;-4.38;66.81;102135.64;1669020;86;21142;-70
2022/01/24 01:23:59;;;;;;;13.50;7.87;;;;;;;-4.40;66.98;102138.03;1669231;85;21096;-70
2022/01/24 01:26:49;;;;;;;17.02;9.40;;;;;;;-4.46;67.33;102139.34;1669108;86;21088;-70
2022/01/24 01:29:19;;;;;;;13.08;7.37;;;;;;;-4.54;67.55;102140.39;1668512;86;21032;-71
2022/01/24 01:55:45;;;;;;;12.65;7.22;;;;;;;-5.31;70.01;102150.61;1686888;85;21014;-70
2022/01/24 01:58:14;;;;;;;15.53;8.83;;;;;;;-5.34;70.08;102155.56;1659025;85;21500;-71
2022/01/24 02:00:55;;;;;;;13.55;8.40;;;;;;;-5.36;70.33;102152.71;1686653;85;21043;-71
2022/01/24 02:03:23;;;;;;;13.30;7.53;;;;;;;-5.37;70.43;102157.09;1687126;85;21635;-69
2022/01/24 02:05:49;;;;;;;12.70;7.10;;;;;;;-5.39;70.59;102160.30;1686613;85;20999;-71
2022/01/24 02:08:17;;;;;;;13.25;7.08;;;;;;;-5.43;70.68;102166.21;1686813;85;21526;-70
2022/01/24 02:10:45;;;;;;;14.35;8.05;;;;;;;-5.43;70.72;102170.56;1686506;85;21533;-69
2022/01/24 02:13:12;;;;;;;13.68;7.70;;;;;;;-5.48;70.75;102171.39;1686736;85;21042;-70
2022/01/24 02:23:59;;;;;;;16.50;8.68;;;;;;;-5.61;71.08;102175.35;1686698;84;21492;-70
2022/01/24 02:25:35;;;;;;;16.32;9.05;;;;;;;-5.58;71.16;102179.52;1673688;85;21110;-70
2022/01/24 02:28:03;;;;;;;16.02;9.15;;;;;;;-5.60;71.22;102180.91;1686702;85;21469;-70
2022/01/24 02:30:52;;;;;;;14.70;8.80;;;;;;;-5.59;71.27;102190.84;1686690;85;21536;-72
2022/01/24 02:33:09;;;;;;;16.87;9.38;;;;;;;-5.56;71.25;102176.30;1686192;85;21006;-71
2022/01/24 02:35:36;;;;;;;17.20;9.38;;;;;;;-5.55;71.27;102173.61;1685618;85;21166;-70
2022/01/24 02:38:11;;;;;;;16.02;9.78;;;;;;;-5.53;71.31;102182.59;1685889;85;21063;-70
2022/01/24 02:40:33;;;;;;;16.27;9.33;;;;;;;-5.58;71.33;102173.00;1686522;85;21601;-70
2022/01/24 02:48:26;;;;;;;18.40;9.90;;;;;;;-5.51;71.46;102169.83;1686160;85;21117;-71
2022/01/24 02:51:22;;;;;;;17.32;9.43;;;;;;;-5.48;71.42;102174.81;1686503;85;21600;-70
2022/01/24 02:53:34;;;;;;;16.62;9.23;;;;;;;-5.45;71.35;102179.80;1686288;85;21054;-70
2022/01/24 02:56:02;;;;;;;18.12;9.45;;;;;;;-5.48;71.22;102172.21;1685702;85;20987;-70
2022/01/24 02:58:29;;;;;;;18.02;10.93;;;;;;;-5.50;71.25;102168.87;1686885;85;21031;-70
2022/01/24 03:00:56;;;;;;;17.95;8.75;;;;;;;-5.46;71.26;102172.12;1685584;85;21129;-70
2022/01/24 03:03:23;;;;;;;15.58;9.23;;;;;;;-5.46;71.23;102180.75;1686788;85;20999;-71
2022/01/24 03:05:49;;;;;;;17.80;10.13;;;;;;;-5.46;71.17;102177.33;1685985;85;21051;-70
2022/01/24 03:08:20;;;;;;;15.75;8.08;;;;;;;-5.50;71.17;102176.69;1686681;85;20955;-70
2022/01/24 03:10:46;;;;;;;17.70;10.15;;;;;;;-5.48;71.24;102175.29;1686494;85;20947;-70
2022/01/24 03:15:51;;;;;;;12.65;7.42;;;;;;;-5.48;71.23;102167.00;1686216;85;20994;-71
2022/01/24 03:18:17;;;;;;;13.55;8.33;;;;;;;-5.47;71.27;102170.43;1687095;85;21498;-71
2022/01/24 03:20:44;;;;;;;13.80;7.90;;;;;;;-5.48;71.28;102169.61;1684711;85;21011;-71
2022/01/24 03:23:13;;;;;;;10.88;5.87;;;;;;;-5.49;71.32;102164.05;1686810;84;21058;-71
2022/01/24 03:25:40;;;;;;;10.48;5.95;;;;;;;-5.47;71.30;102173.86;1686704;85;21128;-70
2022/01/24 03:28:06;;;;;;;9.93;6.25;;;;;;;-5.50;71.22;102168.87;1686254;85;22406;-71
2022/01/24 03:30:33;;;;;;;7.30;3.75;;;;;;;-5.55;71.21;102171.48;1686585;85;21070;-71
2022/01/24 03:32:59;;;;;;;8.48;5.20;;;;;;;-5.60;71.29;102187.89;1686795;85;21191;-71
2022/01/24 03:35:26;;;;;;;10.82;6.30;;;;;;;-5.63;71.39;102192.02;1686620;85;21077;-71
2022/01/24 03:37:53;;;;;;;15.13;9.28;;;;;;;-5.62;71.47;102183.29;1686722;85;21988;-71
2022/01/24 03:40:19;;;;;;;18.60;9.55;;;;;;;-5.59;71.48;102187.80;1686435;85;21057;-72
2022/01/24 03:42:46;;;;;;;17.82;10.88;;;;;;;-5.56;71.35;102181.06;1686953;85;21068;-72
2022/01/24 03:45:14;;;;;;;15.48;8.85;;;;;;;-5.53;71.27;102193.01;1686794;85;21077;-71
2022/01/24 03:47:59;;;;;;;16.40;9.40;;;;;;;-5.54;71.17;102186.97;1687065;85;21023;-71
2022/01/24 03:50:17;;;;;;;15.70;9.33;;;;;;;-5.56;71.03;102182.37;1686542;85;21951;-72
2022/01/24 03:52:42;;;;;;;18.30;9.43;;;;;;;-5.54;71.06;102196.56;1686692;85;20991;-71
2022/01/24 03:55:08;;;;;;;16.30;9.68;;;;;;;-5.54;71.03;102195.27;1686897;85;21057;-71
2022/01/24 03:57:35;;;;;;;15.55;9.25;;;;;;;-5.52;71.04;102195.99;1687210;85;21063;-70
2022/01/24 04:00:03;;;;;;;15.70;9.38;;;;;;;-5.51;71.04;102186.75;1686735;85;21123;-71
2022/01/24 04:02:31;;;;;;;14.45;8.80;;;;;;;-5.47;70.98;102180.38;1684277;85;22058;-71
2022/01/24 04:04:58;;;;;;;16.12;8.73;;;;;;;-5.47;70.99;102175.16;1686706;85;21030;-70
2022/01/24 04:07:25;;;;;;;14.45;8.98;;;;;;;-5.44;71.02;102177.55;1686859;85;21559;-71
2022/01/24 04:09:51;;;;;;;13.75;8.50;;;;;;;-5.43;71.05;102181.83;1686381;85;21034;-72
2022/01/24 04:12:22;;;;;;;13.60;8.65;;;;;;;-5.39;71.10;102175.92;1686829;85;21074;-72
2022/01/24 04:22:31;;;;;;;16.07;9.73;;;;;;;-5.33;70.71;102170.72;1686277;84;21492;-72
2022/01/24 04:24:59;;;;;;;18.48;9.58;;;;;;;-5.38;70.70;102171.06;1686658;85;21043;-71
2022/01/24 04:27:22;;;;;;;14.03;7.53;;;;;;;-5.38;70.71;102172.84;1686743;85;21129;-71
2022/01/24 04:29:49;;;;;;;15.72;9.63;;;;;;;-5.40;70.69;102178.15;1686562;85;21042;-71
2022/01/24 04:32:16;;;;;;;18.52;10.35;;;;;;;-5.42;70.74;102189.99;1686820;85;20963;-71
2022/01/24 04:34:43;;;;;;;17.15;9.58;;;;;;;-5.42;70.73;102186.56;1686711;85;21558;-70
2022/01/24 04:37:10;;;;;;;14.43;8.65;;;;;;;-5.42;70.79;102186.56;1686792;85;20999;-70
2022/01/24 04:39:36;;;;;;;16.52;9.25;;;;;;;-5.40;70.77;102190.34;1686709;85;21116;-71
2022/01/24 04:42:10;;;;;;;12.03;7.10;;;;;;;-5.43;70.74;102189.64;1686249;85;21260;-71
2022/01/24 04:47:17;;;;;;;11.83;6.75;;;;;;;-5.46;70.44;102182.53;1686940;85;21035;-71
2022/01/24 04:52:25;;;;;;;17.55;9.03;;;;;;;-5.41;70.36;102197.33;1687055;85;21107;-70
2022/01/24 04:54:45;;;;;;;15.15;8.05;;;;;;;-5.39;70.33;102203.74;1686281;85;21538;-70
2022/01/24 04:57:19;;;;;;;12.45;7.22;;;;;;;-5.38;70.35;102204.09;1686469;85;20955;-70
2022/01/24 04:59:47;;;;;;;10.48;6.40;;;;;;;-5.40;70.04;102203.36;1686793;85;21069;-70
2022/01/24 05:02:15;;;;;;;9.05;5.53;;;;;;;-5.44;69.79;102204.88;1686203;85;20959;-70
2022/01/24 05:04:41;;;;;;;10.95;6.15;;;;;;;-5.49;69.64;102210.91;1686611;85;21299;-71
2022/01/24 05:07:08;;;;;;;11.93;6.12;;;;;;;-5.52;69.54;102211.61;1686936;85;21010;-71
2022/01/24 05:09:40;;;;;;;10.08;6.00;;;;;;;-5.49;69.57;102214.00;1686530;85;21098;-71
2022/01/24 05:12:15;;;;;;;11.20;6.70;;;;;;;-5.49;69.52;102216.13;1686101;85;21546;-71
2022/01/24 05:25:39;;;;;;;12.73;6.95;;;;;;;-5.46;69.47;102232.83;1686666;85;21532;-71
2022/01/24 05:28:05;;;;;;;11.57;6.45;;;;;;;-5.49;69.31;102226.54;1685692;85;21078;-71
2022/01/24 05:30:31;;;;;;;13.13;6.33;;;;;;;-5.49;69.22;102227.02;1685824;85;21165;-70
2022/01/24 05:32:58;;;;;;;12.03;5.95;;;;;;;-5.52;69.08;102229.36;1685914;85;21015;-72
2022/01/24 05:35:24;;;;;;;14.78;6.58;;;;;;;-5.52;69.08;102228.06;1686528;85;21070;-70
2022/01/24 05:37:50;;;;;;;13.35;6.70;;;;;;;-5.51;68.99;102232.31;1685313;85;21003;-71
2022/01/24 05:40:17;;;;;;;12.63;7.28;;;;;;;-5.50;69.00;102232.66;1686685;85;21129;-70
2022/01/24 05:42:43;;;;;;;12.35;6.45;;;;;;;-5.48;69.02;102229.97;1686780;85;21508;-70
2022/01/24 05:45:10;;;;;;;10.95;5.78;;;;;;;-5.46;69.00;102232.00;1685864;85;21019;-70
2022/01/24 05:47:36;;;;;;;12.98;6.40;;;;;;;-5.44;68.96;102227.02;1686812;85;22047;-71
2022/01/24 05:50:03;;;;;;;12.60;6.85;;;;;;;-5.43;68.97;102221.34;1685495;85;20999;-71
2022/01/24 05:52:32;;;;;;;10.72;5.55;;;;;;;-5.39;68.98;102224.09;1686203;85;22214;-70
2022/01/24 05:54:58;;;;;;;13.40;6.83;;;;;;;-5.37;68.84;102230.01;1685827;85;21054;-70
2022/01/24 05:57:25;;;;;;;13.40;6.50;;;;;;;-5.38;68.78;102226.23;1686966;85;20999;-71
2022/01/24 05:59:52;;;;;;;11.18;6.20;;;;;;;-5.39;68.82;102227.18;1686087;85;21011;-70
2022/01/24 06:02:19;;;;;;;12.23;6.17;;;;;;;-5.36;68.85;102234.74;1686913;85;21006;-70
2022/01/24 06:04:45;;;;;;;12.55;7.08;;;;;;;-5.33;68.86;102241.89;1686736;85;21002;-71
2022/01/24 06:07:13;;;;;;;12.40;7.10;;;;;;;-5.31;68.80;102245.67;1686219;85;21186;-70
2022/01/24 06:09:40;;;;;;;11.60;6.17;;;;;;;-5.33;68.78;102242.33;1686597;85;21055;-71
2022/01/24 06:12:09;;;;;;;13.08;6.90;;;;;;;-5.34;68.86;102249.32;1686707;85;21077;-71
2022/01/24 06:14:36;;;;;;;12.85;6.87;;;;;;;-5.29;68.91;102243.80;1686500;85;21019;-71
2022/01/24 06:17:03;;;;;;;14.13;7.70;;;;;;;-5.25;68.96;102239.54;1686951;85;21149;-71
2022/01/24 06:19:30;;;;;;;17.27;8.88;;;;;;;-5.21;68.92;102241.45;1686589;85;21188;-71
2022/01/24 06:21:58;;;;;;;17.15;9.15;;;;;;;-5.22;68.81;102235.89;1686566;84;21560;-72
2022/01/24 06:24:24;;;;;;;20.97;10.78;;;;;;;-5.24;68.84;102239.06;1686839;85;20995;-71
2022/01/24 06:26:50;;;;;;;21.27;12.30;;;;;;;-5.24;68.86;102244.27;1686942;85;21601;-70
2022/01/24 06:29:18;;;;;;;23.45;12.65;;;;;;;-5.23;68.84;102241.57;1686855;85;21167;-71
2022/01/24 06:31:45;;;;;;;22.67;13.13;;;;;;;-5.23;68.84;102227.72;1686823;85;21111;-72
2022/01/24 06:34:11;;;;;;;24.02;12.37;;;;;;;-5.23;68.81;102234.23;1686756;85;21086;-71
2022/01/24 06:36:37;;;;;;;25.75;11.95;;;;;;;-5.21;68.84;102245.35;1686718;85;21490;-71
2022/01/24 06:39:06;;;;;;;20.60;11.22;;;;;;;-5.21;68.79;102244.88;1686834;85;20980;-71
2022/01/24 06:41:33;;;;;;;23.62;11.05;;;;;;;-5.21;68.77;102250.56;1686703;85;21058;-71
2022/01/24 06:44:00;;;;;;;26.52;11.25;;;;;;;-5.19;68.77;102256.03;1686653;85;21003;-71
2022/01/24 06:46:27;;;;;;;20.48;10.15;;;;;;;-5.19;68.77;102254.73;1686705;85;21086;-71
2022/01/24 06:48:53;;;;;;;18.98;11.03;;;;;;;-5.17;68.79;102257.20;1686895;85;20979;-72
2022/01/24 06:51:20;;;;;;;20.88;12.10;;;;;;;-5.15;68.75;102261.02;1686374;85;21023;-71
2022/01/24 06:53:48;;;;;;;24.65;12.73;;;;;;;-5.17;68.80;102254.59;1686793;85;21573;-71
2022/01/24 06:56:15;;;;;;;22.17;11.38;;;;;;;-5.14;68.83;102259.58;1685680;85;21588;-72
2022/01/24 06:58:41;;;;;;;19.73;11.28;;;;;;;-5.11;68.87;102252.85;1685881;85;21443;-71
2022/01/24 07:01:07;;;;;;;20.75;10.35;;;;;;;-5.07;68.84;102237.82;1686565;85;21039;-71
2022/01/24 07:03:34;;;;;;;18.20;9.95;;;;;;;-5.02;68.82;102244.36;1686703;85;21097;-71
2022/01/24 07:06:01;;;;;;;23.07;11.55;;;;;;;-5.02;68.74;102256.56;1686536;85;21607;-71
2022/01/24 07:08:28;;;;;;;18.20;10.35;;;;;;;-5.05;68.75;102243.28;1686809;85;21233;-71
2022/01/24 07:10:54;;;;;;;22.75;10.35;;;;;;;-5.03;68.86;102244.02;1686530;85;21042;-72
2022/01/24 07:13:21;;;;;;;20.82;10.98;;;;;;;-4.96;68.86;102242.61;1686466;85;21007;-71
2022/01/24 07:16:03;;;;;;;19.50;11.55;;;;;;;-4.93;68.82;102242.03;1686569;85;21509;-71
2022/01/24 07:20:56;;;;;;;21.35;12.05;;;;;;;-4.87;68.71;102239.80;1686622;85;21518;-72
2022/01/24 07:23:25;;;;;;;19.90;11.78;;;;;;;-4.82;68.72;102234.23;1686552;84;21003;-71
2022/01/24 07:25:51;;;;;;;20.95;11.20;;;;;;;-4.75;68.71;102241.94;1686230;85;21092;-70
2022/01/24 07:28:18;;;;;;;21.42;11.80;;;;;;;-4.71;68.62;102224.64;1687093;85;21526;-71
2022/01/24 07:30:44;;;;;;;19.67;11.43;;;;;;;-4.65;68.50;102228.57;1686625;85;20964;-71
2022/01/24 07:33:14;;;;;;;21.70;12.00;;;;;;;-4.63;68.38;102221.47;1686923;85;21186;-71
2022/01/24 07:35:45;;;;;;;17.80;10.00;;;;;;;-4.59;68.28;102218.98;1686481;85;21011;-70
2022/01/24 07:38:11;;;;;;;16.32;9.03;;;;;;;-4.53;68.22;102217.69;1687216;85;21090;-71
2022/01/24 07:40:41;;;;;;;19.70;9.90;;;;;;;-4.49;68.14;102216.50;1686587;85;21059;-71
2022/01/24 07:43:12;;;;;;;23.60;11.50;;;;;;;-4.40;68.04;102218.89;1686913;85;20999;-72
2022/01/24 07:45:36;;;;;;;20.37;10.80;;;;;;;-4.38;67.78;102226.10;1685578;85;22033;-71
2022/01/24 07:48:04;;;;;;;22.87;12.82;;;;;;;-4.39;67.73;102220.06;1686757;85;21495;-71
2022/01/24 07:50:32;;;;;;;21.10;12.75;;;;;;;-4.33;67.71;102215.68;1686605;85;21058;-71
2022/01/24 07:52:59;;;;;;;19.85;11.90;;;;;;;-4.23;67.65;102215.80;1686727;85;21557;-71
2022/01/24 07:55:26;;;;;;;21.65;12.33;;;;;;;-4.15;67.51;102207.36;1686646;85;20958;-71
2022/01/24 07:57:52;;;;;;;20.72;11.73;;;;;;;-4.11;67.20;102216.16;1686549;85;21541;-71
2022/01/24 08:00:19;;;;;;;23.32;13.18;;;;;;;-4.07;67.15;102212.34;1686644;85;21011;-71
2022/01/24 08:02:45;;;;;;;24.52;12.58;;;;;;;-3.98;67.01;102216.03;1686559;85;21431;-71
2022/01/24 08:05:12;;;;;;;21.00;11.85;;;;;;;-3.93;66.75;102214.34;1686762;85;21058;-72
2022/01/24 08:07:38;;;;;;;21.80;12.00;;;;;;;-3.91;66.55;102204.62;1686751;85;21581;-71
2022/01/24 08:10:06;;;;;;;20.57;12.50;;;;;;;-3.90;66.37;102199.75;1686559;85;21134;-71
2022/01/24 08:12:33;;;;;;;19.80;10.82;;;;;;;-3.87;66.27;102202.94;1686676;85;20968;-71
2022/01/24 08:15:03;;;;;;;20.90;11.48;;;;;;;-3.82;66.21;102204.73;1686486;85;21376;-70
2022/01/24 08:17:30;;;;;;;19.90;11.45;;;;;;;-3.75;66.03;102200.30;1686662;85;21027;-71
2022/01/24 08:19:56;;;;;;;20.35;11.68;;;;;;;-3.69;65.93;102201.94;1686594;85;21081;-71
2022/01/24 08:22:23;;;;;;;20.97;11.80;;;;;;;-3.65;65.66;102202.06;1685768;84;21602;-71
2022/01/24 08:24:51;;;;;;;21.93;12.53;;;;;;;-3.64;65.46;102201.10;1686583;85;21030;-72
2022/01/24 08:27:18;;;;;;;19.37;11.28;;;;;;;-3.60;65.37;102205.60;1686677;85;21020;-72
2022/01/24 08:29:47;;;;;;;17.73;10.72;;;;;;;-3.55;65.38;102201.67;1686799;85;21004;-71
2022/01/24 08:32:14;;;;;;;18.60;11.43;;;;;;;-3.49;65.25;102193.80;1686488;85;21522;-72
2022/01/24 08:34:40;;;;;;;16.67;9.48;;;;;;;-3.45;65.05;102200.94;1686675;85;21757;-72
2022/01/24 08:37:07;;;;;;;18.00;9.45;;;;;;;-3.42;64.93;102202.82;1686682;85;21525;-72
2022/01/24 08:39:33;;;;;;;20.97;11.00;;;;;;;-3.37;64.79;102202.44;1686755;85;20991;-72
2022/01/24 08:42:13;;;;;;;21.95;11.38;;;;;;;-3.35;64.77;102195.31;1686640;85;21612;-72
2022/01/24 08:47:12;;;;;;;19.50;11.38;;;;;;;-3.21;64.57;102189.77;1686925;85;21068;-71
2022/01/24 08:49:39;;;;;;;16.82;8.75;;;;;;;-3.16;64.32;102198.08;1686663;85;21018;-71
2022/01/24 08:52:06;;;;;;;19.90;11.65;;;;;;;-3.12;64.21;102196.86;1686776;85;20987;-73
2022/01/24 08:54:33;;;;;;;19.80;11.10;;;;;;;-3.09;64.00;102200.53;1686745;85;21078;-71
2022/01/24 08:56:59;;;;;;;18.48;12.03;;;;;;;-3.06;63.83;102196.80;1685909;85;21541;-72
2022/01/24 08:59:26;;;;;;;17.42;9.75;;;;;;;-3.04;63.84;102187.06;1686817;85;21160;-73
2022/01/24 09:01:53;;;;;;;18.95;11.28;;;;;;;-2.98;63.70;102180.02;1686360;85;21126;-73
2022/01/24 09:04:20;;;;;;;20.82;11.60;;;;;;;-2.93;63.53;102180.94;1686793;85;21477;-72
2022/01/24 09:06:48;;;;;;;17.32;9.18;;;;;;;-2.87;63.44;102183.04;1685838;85;21015;-74
2022/01/24 09:09:15;;;;;;;17.23;9.78;;;;;;;-2.85;63.20;102181.14;1683906;85;21106;-72
2022/01/24 09:11:42;;;;;;;18.42;11.15;;;;;;;-2.85;63.09;102185.87;1686956;85;21506;-72
2022/01/24 09:14:09;;;;;;;22.93;10.18;;;;;;;-2.83;62.96;102177.89;1686125;85;21003;-71
2022/01/24 09:16:37;;;;;;;19.65;10.68;;;;;;;-2.77;62.93;102174.77;1681995;85;21058;-72
2022/01/24 09:19:05;;;;;;;18.25;11.00;;;;;;;-2.71;62.67;102163.79;1686148;85;21019;-73
2022/01/24 09:21:34;;;;;;;16.60;9.53;;;;;;;-2.65;62.63;102163.75;1686919;85;20995;-72
2022/01/24 09:24:01;;;;;;;15.98;9.78;;;;;;;-2.56;62.56;102158.23;1686951;84;21777;-71
2022/01/24 09:26:28;;;;;;;17.25;10.18;;;;;;;-2.50;62.16;102156.37;1686681;85;21030;-73
2022/01/24 09:28:54;;;;;;;19.23;11.78;;;;;;;-2.47;62.15;102160.89;1686687;85;21625;-72
2022/01/24 09:31:22;;;;;;;16.45;9.53;;;;;;;-2.45;61.87;102156.81;1686607;85;21035;-72
2022/01/24 09:33:51;;;;;;;20.52;11.43;;;;;;;-2.43;61.76;102158.83;1686897;85;21007;-72
2022/01/24 09:36:18;;;;;;;19.23;11.28;;;;;;;-2.41;61.87;102154.27;1686472;85;21113;-72
2022/01/24 09:38:45;;;;;;;20.62;11.00;;;;;;;-2.30;61.80;102162.05;1686763;85;21549;-72
2022/01/24 09:41:15;;;;;;;19.95;11.08;;;;;;;-2.29;61.37;102154.53;1686641;85;21073;-72
2022/01/24 09:43:43;;;;;;;17.32;10.10;;;;;;;-2.29;61.22;102161.07;1686691;85;20983;-72
2022/01/24 09:46:10;;;;;;;18.90;11.18;;;;;;;-2.31;61.05;102153.82;1686674;85;21010;-73
2022/01/24 09:48:41;;;;;;;16.48;9.58;;;;;;;-2.32;61.20;102139.09;1686781;85;21150;-72
2022/01/24 09:51:08;;;;;;;16.50;10.20;;;;;;;-2.32;61.20;102139.09;1686380;85;21608;-73
2022/01/24 09:53:37;;;;;;;19.90;11.85;;;;;;;-2.32;61.01;102140.41;1686777;85;21062;-73
2022/01/24 09:56:04;;;;;;;18.40;11.20;;;;;;;-2.29;60.99;102138.00;1686724;85;21062;-72
2022/01/24 09:58:35;;;;;;;19.45;11.18;;;;;;;-2.31;60.79;102137.30;1687152;85;21509;-72
2022/01/24 10:01:07;;;;;;;18.90;11.08;;;;;;;-2.31;60.79;102137.30;1686744;85;21085;-72
2022/01/24 10:03:34;;;;;;;18.17;10.10;;;;;;;-2.37;60.60;102126.42;1686927;85;21556;-71
2022/01/24 10:06:03;;;;;;;18.00;11.25;;;;;;;-2.41;60.60;102126.31;1686514;85;21011;-71
2022/01/24 10:08:32;;;;;;;18.92;10.85;;;;;;;-2.43;60.76;102137.41;1686857;85;21676;-70
2022/01/24 10:11:02;;;;;;;19.07;10.90;;;;;;;-2.39;60.82;102118.34;1686649;85;21093;-72
2022/01/24 10:19:23;;;;;;;19.40;10.98;;;;;;;-2.28;60.26;102127.39;1686880;85;21098;-71
2022/01/24 10:22:00;;;;;;;18.98;10.25;;;;;;;-2.23;60.42;102124.39;1686805;84;21022;-71
2022/01/24 10:24:40;;;;;;;24.85;12.20;;;;;;;-2.17;60.33;102124.67;1686854;85;21545;-71
2022/01/24 10:27:16;;;;;;;26.80;13.68;;;;;;;-2.20;60.02;102122.33;1685347;85;21135;-70
2022/01/24 10:30:03;;;;;;;21.93;11.78;;;;;;;-2.20;59.92;102122.33;1686710;85;21189;-70
2022/01/24 10:32:49;;;;;;;20.95;12.58;;;;;;;-2.13;60.24;102126.05;1686676;85;21062;-71
2022/01/24 10:35:36;;;;;;;20.92;11.53;;;;;;;-2.03;60.13;102122.14;1686654;85;21044;-71
2022/01/24 10:38:52;;;;;;;19.62;12.15;;;;;;;-1.96;60.21;102117.19;1686859;85;21110;-70
2022/01/24 10:43:40;;;;;;;19.90;12.30;;;;;;;-1.87;59.62;102105.91;1686875;85;21015;-71
2022/01/24 10:46:07;;;;;;;19.65;11.30;;;;;;;-1.82;59.52;102099.75;1686549;85;21207;-71
2022/01/24 10:48:42;;;;;;;21.00;11.53;;;;;;;-1.78;59.39;102099.81;1687019;85;21011;-71
2022/01/24 10:51:21;;;;;;;20.27;12.00;;;;;;;-1.73;59.15;102093.70;1658582;85;21470;-71
2022/01/24 10:53:56;;;;;;;20.50;11.35;;;;;;;-1.68;59.11;102094.13;1687096;85;21118;-71
2022/01/24 10:56:41;;;;;;;18.30;11.00;;;;;;;-1.47;58.02;102095.75;1686323;85;20964;-71
2022/01/24 10:59:21;;;;;;;20.62;11.43;;;;;;;-1.47;58.02;102095.75;1686244;85;21054;-70
2022/01/24 11:01:52;;;;;;;17.80;10.70;;;;;;;-1.46;58.07;102105.26;1686526;85;21569;-71
2022/01/24 11:04:19;;;;;;;19.00;11.28;;;;;;;-1.51;57.46;102089.14;1686444;83;21066;-71
2022/01/24 11:06:50;;;;;;;19.92;11.70;;;;;;;-1.51;57.42;102094.39;1679916;85;21534;-71
2022/01/24 11:09:29;;;;;;;22.50;12.55;;;;;;;-1.51;57.41;102091.77;1687112;85;21534;-71
2022/01/24 11:12:07;;;;;;;21.73;12.73;;;;;;;-1.51;57.34;102087.34;1686488;85;21101;-71
2022/01/24 11:14:32;;;;;;;22.17;12.63;;;;;;;-1.49;57.22;102076.70;1684251;83;21008;-72
2022/01/24 11:17:01;;;;;;;20.72;12.63;;;;;;;-1.45;57.13;102071.06;1686540;85;21092;-71
2022/01/24 11:19:38;;;;;;;21.55;12.23;;;;;;;-1.42;56.73;102074.69;1686058;85;21116;-71
2022/01/24 11:22:01;;;;;;;;;;;;;;;-1.35;56.69;102070.20;1686559;84;21109;-71
2022/01/24 11:24:45;;;;;;;19.25;11.53;;;;;;;-1.27;56.20;102071.16;1687135;85;20161;-70
2022/01/24 11:27:09;;;;;;;18.70;9.95;;;;;;;-1.28;55.76;102053.78;1686553;85;21035;-69
2022/01/24 11:29:37;;;;;;;20.08;11.83;;;;;;;-1.34;55.48;102049.10;1685980;85;21569;-71
2022/01/24 11:32:33;;;;;;;18.32;11.03;;;;;;;-1.35;55.42;102042.67;1686591;85;21802;-72
2022/01/24 11:35:01;;;;;;;19.45;12.63;;;;;;;-1.32;55.44;102045.02;1686795;83;21054;-71
2022/01/24 11:37:40;;;;;;;20.30;11.68;;;;;;;-1.31;55.29;102043.58;1686661;85;21569;-72
2022/01/24 11:40:19;;;;;;;19.77;11.28;;;;;;;-1.29;55.01;102038.18;1686667;85;21042;-72
2022/01/24 11:42:47;;;;;;;19.95;11.60;;;;;;;-1.27;54.83;102047.56;1686815;85;21032;-72
2022/01/24 11:45:19;;;;;;;20.12;11.33;;;;;;;-1.22;54.91;102034.86;1686404;85;21150;-71
2022/01/24 11:47:47;;;;;;;23.70;12.82;;;;;;;-1.19;54.67;102042.41;1687376;85;21145;-70
2022/01/24 11:50:36;;;;;;;22.95;13.00;;;;;;;-1.22;55.87;102047.13;1685820;85;21089;-71
2022/01/24 11:53:01;;;;;;;24.67;13.43;;;;;;;-1.29;56.70;102042.94;1687102;85;21011;-72
2022/01/24 11:55:35;;;;;;;21.77;13.00;;;;;;;-1.31;57.15;102051.44;1686629;85;21160;-72
2022/01/24 11:58:05;;;;;;;21.55;13.00;;;;;;;-1.32;57.38;102043.22;1686898;85;21493;-71
2022/01/24 12:00:44;;;;;;;22.52;13.72;;;;;;;-1.35;57.58;102038.28;1686281;85;21033;-71
2022/01/24 12:03:26;;;;;;;21.42;12.80;;;;;;;-1.32;57.77;102036.66;1686958;85;21177;-71
2022/01/24 12:05:53;;;;;;;21.55;11.73;;;;;;;-1.29;57.75;102038.18;1686974;85;21054;-72
2022/01/24 12:08:38;;;;;;;21.12;12.37;;;;;;;-1.32;57.65;102044.52;1687283;85;21455;-73
2022/01/24 12:11:21;;;;;;;21.60;12.95;;;;;;;-1.38;57.68;102045.12;1686606;85;21788;-71
2022/01/24 12:13:55;;;;;;;22.80;12.58;;;;;;;-1.44;57.84;102041.75;1686826;85;21011;-71
2022/01/24 12:16:37;;;;;;;19.35;11.70;;;;;;;-1.46;57.89;102037.95;1686588;85;21015;-71
2022/01/24 12:19:04;;;;;;;21.30;12.90;;;;;;;-1.45;57.93;102036.14;1687012;85;21081;-70
2022/01/24 12:21:35;;;;;;;21.07;11.53;;;;;;;-1.45;57.96;102040.08;1686777;85;21010;-72
2022/01/24 12:24:09;;;;;;;20.95;12.40;;;;;;;-1.44;57.99;102045.68;1686442;84;21870;-71
2022/01/24 12:26:42;;;;;;;19.50;11.65;;;;;;;-1.45;57.94;102043.55;1686622;85;21144;-71
2022/01/24 12:29:15;;;;;;;18.75;11.08;;;;;;;-1.45;57.97;102041.39;1686936;85;20979;-71
2022/01/24 12:31:58;;;;;;;18.25;11.12;;;;;;;-1.43;58.07;102044.70;1686658;85;21141;-72
2022/01/24 12:34:31;;;;;;;21.68;12.65;;;;;;;-1.39;58.01;102055.73;1686938;85;21129;-72
2022/01/24 12:37:24;;;;;;;18.60;11.20;;;;;;;-1.41;58.06;102045.40;1686803;85;21560;-72
2022/01/24 12:39:58;;;;;;;18.20;10.65;;;;;;;-1.40;58.06;102048.36;1686880;85;21062;-71
2022/01/24 12:42:42;;;;;;;19.37;11.35;;;;;;;-1.41;57.99;102059.81;1686798;85;21110;-72
2022/01/24 12:48:11;;;;;;;18.40;11.33;;;;;;;-1.42;57.88;102070.75;1687149;85;21125;-70
2022/01/24 12:50:43;;;;;;;19.65;11.22;;;;;;;-1.40;57.78;102066.70;1686718;85;21169;-71
2022/01/24 12:53:14;;;;;;;19.80;10.82;;;;;;;-1.36;57.80;102068.55;1686639;85;21004;-72
2022/01/24 12:55:44;;;;;;;16.40;8.50;;;;;;;-1.34;57.75;102059.59;1660071;85;21014;-72
2022/01/24 12:58:10;;;;;;;21.33;11.10;;;;;;;-1.31;57.74;102055.86;1687162;85;20968;-72
2022/01/24 13:00:44;;;;;;;20.35;11.28;;;;;;;-1.29;57.73;102057.84;1686783;85;21596;-71
2022/01/24 13:03:06;;;;;;;19.80;11.03;;;;;;;-1.25;57.70;102043.47;1686275;85;21519;-70
2022/01/24 13:05:36;;;;;;;23.10;11.80;;;;;;;-1.21;57.67;102047.00;1686732;85;21010;-71
2022/01/24 13:08:03;;;;;;;19.57;11.30;;;;;;;-1.20;57.58;102051.26;1687249;85;21010;-71
2022/01/24 13:10:31;;;;;;;17.30;10.00;;;;;;;-1.15;57.57;102053.93;1685880;85;21098;-71
2022/01/24 13:13:11;;;;;;;18.35;10.80;;;;;;;-1.12;57.55;102051.02;1687119;85;21085;-70
2022/01/24 13:21:19;;;;;;;18.00;10.13;;;;;;;-1.24;57.36;102060.38;1686124;85;20967;-71